Time;durP1;ratioP1;P1;durP2;ratioP2;P2;SDS_P1;SDS_P2;PMS_P1;PMS_P2;Temp;Humidity;BMP_temperature;BMP_pressure;BME280_temperature;BME280_humidity;BME280_pressure;Samples;Min_cycle;Max_cycle;Signal;HPM_P1;HPM_P2
2021/10/09 00:00:14;;;;;;;;;;;23.10;45.20;;;;;;1554954;76;581;-56
2021/10/09 00:02:16;;;;;;;;;;;23.10;45.20;;;;;;1542938;76;671;-55
2021/10/09 00:04:18;;;;;;;;;;;23.20;45.30;;;;;;1535350;75;1136;-55
2021/10/09 00:06:20;;;;;;;;;;;23.10;45.20;;;;;;1541060;76;720;-56
2021/10/09 00:08:21;;;;;;;;;;;23.10;45.30;;;;;;1539928;76;1933;-59
2021/10/09 00:10:26;;;;;;;;;;;23.10;45.30;;;;;;1539130;76;695;-59
2021/10/09 00:12:27;;;;;;;;;;;23.10;45.30;;;;;;1544488;76;1601;-56
2021/10/09 00:14:29;;;;;;;;;;;23.20;45.30;;;;;;1537613;76;1144;-56
2021/10/09 00:16:31;;;;;;;;;;;23.10;45.30;;;;;;1534935;76;667;-56
2021/10/09 00:18:32;;;;;;;;;;;23.10;45.30;;;;;;1544326;76;693;-56
2021/10/09 00:20:34;;;;;;;;;;;23.10;45.30;;;;;;1543163;76;807;-54
2021/10/09 00:22:36;;;;;;;;;;;23.10;45.40;;;;;;1536481;76;788;-58
2021/10/09 00:24:38;;;;;;;;;;;23.10;45.30;;;;;;1538991;76;1181;-60
2021/10/09 00:26:40;;;;;;;;;;;23.10;45.40;;;;;;1538627;76;689;-59
2021/10/09 00:28:42;;;;;;;;;;;23.10;45.30;;;;;;1543000;76;1931;-58
2021/10/09 00:30:44;;;;;;;;;;;23.10;45.30;;;;;;1536096;76;707;-58
2021/10/09 00:32:46;;;;;;;;;;;23.10;45.30;;;;;;1535001;76;683;-57
2021/10/09 00:34:47;;;;;;;;;;;23.10;45.20;;;;;;1536380;75;1154;-56
2021/10/09 00:36:49;;;;;;;;;;;23.10;45.30;;;;;;1540967;76;655;-58
2021/10/09 00:38:51;;;;;;;;;;;23.10;45.30;;;;;;1547773;76;742;-59
2021/10/09 00:40:53;;;;;;;;;;;23.10;45.30;;;;;;1533681;76;770;-58
2021/10/09 00:42:55;;;;;;;;;;;23.00;45.20;;;;;;1535250;76;760;-56
2021/10/09 00:44:57;;;;;;;;;;;23.10;45.30;;;;;;1551514;75;1158;-58
2021/10/09 00:47:00;;;;;;;;;;;23.10;45.40;;;;;;1539484;75;705;-58
2021/10/09 00:49:02;;;;;;;;;;;23.00;45.30;;;;;;1548812;76;1911;-55
2021/10/09 00:51:04;;;;;;;;;;;23.00;45.40;;;;;;1537005;76;777;-59
2021/10/09 00:53:06;;;;;;;;;;;23.10;45.50;;;;;;1535408;76;606;-56
2021/10/09 00:55:08;;;;;;;;;;;23.10;45.60;;;;;;1543535;75;1089;-58
2021/10/09 00:57:13;;;;;;;;;;;23.00;45.50;;;;;;1545543;76;709;-59
2021/10/09 00:59:14;;;;;;;;;;;23.10;45.60;;;;;;1540742;76;1589;-59
2021/10/09 01:01:18;;;;;;;;;;;23.00;45.50;;;;;;1537854;76;681;-56
2021/10/09 01:03:19;;;;;;;;;;;23.00;45.50;;;;;;1553848;76;699;-55
2021/10/09 01:05:21;;;;;;;;;;;23.10;45.70;;;;;;1552628;75;1136;-53
2021/10/09 01:07:23;;;;;;;;;;;23.00;45.60;;;;;;1554484;76;719;-53
2021/10/09 01:09:25;;;;;;;;;;;23.00;45.70;;;;;;1546914;72;223221;-68
2021/10/09 01:11:27;;;;;;;;;;;23.00;45.70;;;;;;1549607;76;726;-67
2021/10/09 01:13:29;;;;;;;;;;;23.00;45.70;;;;;;1525735;77;772;-68
2021/10/09 01:15:34;;;;;;;;;;;23.00;45.70;;;;;;1546931;76;732;-69
2021/10/09 01:17:36;;;;;;;;;;;23.10;45.80;;;;;;1550196;76;783;-68
2021/10/09 01:19:37;;;;;;;;;;;23.10;45.80;;;;;;1544392;76;1213;-68
2021/10/09 01:21:40;;;;;;;;;;;23.10;45.80;;;;;;1517965;77;1348;-68
2021/10/09 01:23:42;;;;;;;;;;;23.00;45.70;;;;;;1520276;77;779;-68
2021/10/09 01:25:43;;;;;;;;;;;23.00;45.70;;;;;;1511406;77;801;-70
2021/10/09 01:27:45;;;;;;;;;;;23.00;45.70;;;;;;1529818;77;807;-67
2021/10/09 01:29:47;;;;;;;;;;;23.10;45.90;;;;;;1528665;76;1936;-68
2021/10/09 01:31:49;;;;;;;;;;;23.00;45.70;;;;;;1526999;77;662;-68
2021/10/09 01:33:51;;;;;;;;;;;23.00;45.80;;;;;;1521980;77;769;-70
2021/10/09 01:35:56;;;;;;;;;;;23.00;45.80;;;;;;1530484;77;717;-68
2021/10/09 01:37:58;;;;;;;;;;;23.00;45.90;;;;;;1519346;77;729;-68
2021/10/09 01:40:02;;;;;;;;;;;23.00;45.90;;;;;;1520787;76;1101;-67
2021/10/09 01:42:04;;;;;;;;;;;23.00;46.00;;;;;;1523522;77;1700;-69
2021/10/09 01:44:06;;;;;;;;;;;23.00;46.00;;;;;;1530990;77;669;-71
2021/10/09 01:46:08;;;;;;;;;;;23.00;46.00;;;;;;1523888;77;682;-71
2021/10/09 01:48:09;;;;;;;;;;;23.00;46.10;;;;;;1534578;77;806;-69
2021/10/09 01:50:11;;;;;;;;;;;23.00;46.00;;;;;;1526732;77;1956;-69
2021/10/09 01:52:13;;;;;;;;;;;23.00;46.10;;;;;;1529324;77;708;-70
2021/10/09 01:54:15;;;;;;;;;;;23.00;46.00;;;;;;1527322;77;835;-70
2021/10/09 01:56:17;;;;;;;;;;;23.00;46.00;;;;;;1523279;77;749;-70
2021/10/09 01:58:19;;;;;;;;;;;23.00;46.00;;;;;;1519995;77;779;-70
2021/10/09 02:00:21;;;;;;;;;;;23.00;46.00;;;;;;1537519;76;1140;-69
2021/10/09 02:02:23;;;;;;;;;;;23.00;46.00;;;;;;1532595;77;762;-71
2021/10/09 02:04:26;;;;;;;;;;;23.00;46.00;;;;;;1514355;77;826;-70
2021/10/09 02:06:28;;;;;;;;;;;23.00;46.10;;;;;;1539897;77;719;-71
2021/10/09 02:08:30;;;;;;;;;;;22.90;46.00;;;;;;1539673;77;804;-70
2021/10/09 02:10:32;;;;;;;;;;;23.00;46.00;;;;;;1530833;76;1949;-69
2021/10/09 02:12:34;;;;;;;;;;;23.00;46.00;;;;;;1523522;77;739;-69
2021/10/09 02:24:10;;;;;;;;;;;23.00;46.00;;;;;;1534771;76;1637;-70
2021/10/09 02:25:52;;;;;;;;;;;23.00;46.00;;;;;;1521686;77;1610;-69
2021/10/09 02:27:55;;;;;;;;;;;23.00;46.00;;;;;;1525371;77;761;-69
2021/10/09 02:29:57;;;;;;;;;;;23.00;46.00;;;;;;1529323;76;1940;-72
2021/10/09 02:31:59;;;;;;;;;;;23.00;46.00;;;;;;1525636;77;619;-68
2021/10/09 02:34:01;;;;;;;;;;;23.10;46.20;;;;;;1517465;77;818;-69
2021/10/09 02:36:03;;;;;;;;;;;23.10;46.20;;;;;;1513110;77;734;-68
2021/10/09 02:38:05;;;;;;;;;;;23.00;46.00;;;;;;1511587;77;711;-67
2021/10/09 02:40:07;;;;;;;;;;;23.10;46.00;;;;;;1517249;77;1131;-68
2021/10/09 02:42:09;;;;;;;;;;;23.20;46.00;;;;;;1525258;77;783;-67
2021/10/09 02:44:11;;;;;;;;;;;23.20;45.90;;;;;;1522978;77;792;-68
2021/10/09 02:46:12;;;;;;;;;;;23.30;45.80;;;;;;1517211;78;742;-67
2021/10/09 02:48:19;;;;;;;;;;;23.30;45.60;;;;;;1527341;77;812;-67
2021/10/09 02:50:18;;;;;;;;;;;23.30;45.50;;;;;;1504168;77;1932;-67
2021/10/09 02:52:20;;;;;;;;;;;23.30;45.30;;;;;;1518087;77;654;-70
2021/10/09 02:54:22;;;;;;;;;;;23.30;45.30;;;;;;1517232;77;835;-68
2021/10/09 02:56:23;;;;;;;;;;;23.20;45.30;;;;;;1522620;77;828;-68
2021/10/09 02:58:25;;;;;;;;;;;23.20;45.40;;;;;;1520586;77;789;-67
2021/10/09 03:00:27;;;;;;;;;;;23.20;45.30;;;;;;1522939;77;1083;-68
2021/10/09 03:02:29;;;;;;;;;;;23.10;45.30;;;;;;1527283;77;841;-66
2021/10/09 03:04:31;;;;;;;;;;;23.10;45.40;;;;;;1509369;77;764;-67
2021/10/09 03:06:33;;;;;;;;;;;23.10;45.30;;;;;;1525314;77;788;-67
2021/10/09 03:08:35;;;;;;;;;;;23.10;45.50;;;;;;1528466;77;783;-69
2021/10/09 03:10:37;;;;;;;;;;;23.10;45.50;;;;;;1524435;76;1953;-67
2021/10/09 03:12:39;;;;;;;;;;;23.10;45.50;;;;;;1528940;77;705;-69
2021/10/09 03:14:41;;;;;;;;;;;23.10;45.40;;;;;;1518008;77;959;-69
2021/10/09 03:16:42;;;;;;;;;;;23.10;45.40;;;;;;1516052;77;785;-69
2021/10/09 03:18:44;;;;;;;;;;;23.10;45.30;;;;;;1527707;77;779;-68
2021/10/09 03:20:46;;;;;;;;;;;23.10;45.40;;;;;;1525764;77;1023;-69
2021/10/09 03:22:48;;;;;;;;;;;23.10;45.40;;;;;;1524804;77;672;-69
2021/10/09 03:24:50;;;;;;;;;;;23.10;45.40;;;;;;1524210;77;827;-70
2021/10/09 03:26:52;;;;;;;;;;;23.10;45.40;;;;;;1526136;77;729;-69
2021/10/09 03:28:54;;;;;;;;;;;23.10;45.40;;;;;;1517851;77;1154;-68
2021/10/09 03:30:55;;;;;;;;;;;23.10;45.50;;;;;;1522769;77;1945;-69
2021/10/09 03:32:57;;;;;;;;;;;23.10;45.30;;;;;;1509716;77;707;-67
2021/10/09 03:34:59;;;;;;;;;;;23.10;45.30;;;;;;1526822;77;724;-68
2021/10/09 03:37:01;;;;;;;;;;;23.20;45.40;;;;;;1521207;77;676;-67
2021/10/09 03:39:07;;;;;;;;;;;23.20;45.30;;;;;;1522656;77;1163;-67
2021/10/09 03:41:10;;;;;;;;;;;23.20;45.20;;;;;;1508766;77;1134;-69
2021/10/09 03:43:15;;;;;;;;;;;23.20;45.20;;;;;;1533741;77;1663;-66
2021/10/09 03:45:23;;;;;;;;;;;23.10;45.20;;;;;;1525235;77;1631;-68
2021/10/09 03:47:24;;;;;;;;;;;23.10;45.20;;;;;;1506081;78;1148;-68
2021/10/09 03:49:46;;;;;;;;;;;23.20;45.20;;;;;;1513782;77;1683;-68
2021/10/09 03:54:00;;;;;;;;;;;23.20;45.10;;;;;;1523936;77;1621;-69
2021/10/09 03:56:01;;;;;;;;;;;23.20;45.10;;;;;;1528144;77;733;-68
2021/10/09 03:58:03;;;;;;;;;;;23.10;45.10;;;;;;1522099;77;769;-68
2021/10/09 04:00:06;;;;;;;;;;;23.20;45.00;;;;;;1524685;77;1078;-68
2021/10/09 04:02:07;;;;;;;;;;;23.20;45.00;;;;;;1521467;77;684;-67
2021/10/09 04:04:09;;;;;;;;;;;23.10;45.00;;;;;;1524490;77;740;-69
2021/10/09 04:06:11;;;;;;;;;;;23.20;45.00;;;;;;1526152;77;787;-69
2021/10/09 04:08:13;;;;;;;;;;;23.20;45.10;;;;;;1525301;77;812;-69
2021/10/09 04:10:16;;;;;;;;;;;23.20;45.00;;;;;;1509632;77;1944;-71
2021/10/09 04:12:18;;;;;;;;;;;23.20;45.10;;;;;;1528210;75;778;-68
2021/10/09 04:14:20;;;;;;;;;;;23.20;45.00;;;;;;1523872;77;757;-68
2021/10/09 04:16:22;;;;;;;;;;;23.20;45.10;;;;;;1528214;77;737;-69
2021/10/09 04:18:24;;;;;;;;;;;23.20;45.10;;;;;;1523588;77;806;-68
2021/10/09 04:20:26;;;;;;;;;;;23.20;45.00;;;;;;1536574;76;1125;-68
2021/10/09 04:22:28;;;;;;;;;;;23.20;44.90;;;;;;1521915;77;708;-68
2021/10/09 04:24:29;;;;;;;;;;;23.20;45.00;;;;;;1530798;77;713;-70
2021/10/09 04:26:31;;;;;;;;;;;23.20;45.00;;;;;;1530802;77;716;-68
2021/10/09 04:28:34;;;;;;;;;;;23.20;45.00;;;;;;1530727;77;709;-68
2021/10/09 04:30:36;;;;;;;;;;;23.20;45.00;;;;;;1528408;76;1937;-68
2021/10/09 04:32:38;;;;;;;;;;;23.30;45.00;;;;;;1530024;77;755;-69
2021/10/09 04:34:40;;;;;;;;;;;23.20;45.00;;;;;;1530098;77;775;-69
2021/10/09 04:36:42;;;;;;;;;;;23.30;45.00;;;;;;1525997;77;795;-70
2021/10/09 04:38:44;;;;;;;;;;;23.30;45.10;;;;;;1525902;77;1039;-70
2021/10/09 04:40:46;;;;;;;;;;;23.40;44.80;;;;;;1527370;77;1067;-70
2021/10/09 04:42:47;;;;;;;;;;;23.50;44.80;;;;;;1531960;77;780;-70
2021/10/09 04:44:49;;;;;;;;;;;23.70;44.40;;;;;;1525394;77;772;-70
2021/10/09 04:46:51;;;;;;;;;;;23.70;44.10;;;;;;1517635;78;806;-70
2021/10/09 04:48:53;;;;;;;;;;;23.80;43.90;;;;;;1536386;76;1129;-72
2021/10/09 04:50:55;;;;;;;;;;;23.90;43.90;;;;;;1530180;77;1943;-70
2021/10/09 04:52:57;;;;;;;;;;;23.90;43.60;;;;;;1526519;77;794;-69
2021/10/09 04:54:59;;;;;;;;;;;23.90;43.60;;;;;;1521676;77;877;-68
2021/10/09 04:57:00;;;;;;;;;;;23.90;43.50;;;;;;1518446;77;705;-70
2021/10/09 04:59:02;;;;;;;;;;;23.90;43.50;;;;;;1526282;76;1129;-70
2021/10/09 05:01:04;;;;;;;;;;;23.90;43.50;;;;;;1530798;77;706;-70
2021/10/09 05:03:06;;;;;;;;;;;23.90;43.40;;;;;;1530900;77;680;-67
2021/10/09 05:05:08;;;;;;;;;;;23.90;43.40;;;;;;1517957;78;789;-71
2021/10/09 05:07:10;;;;;;;;;;;23.90;43.40;;;;;;1518996;77;709;-70
2021/10/09 05:09:12;;;;;;;;;;;23.90;43.50;;;;;;1522361;77;1067;-71
2021/10/09 05:11:16;;;;;;;;;;;23.90;43.40;;;;;;1522391;77;1941;-69
2021/10/09 05:13:17;;;;;;;;;;;23.90;43.40;;;;;;1522079;77;1975;-69
2021/10/09 05:15:19;;;;;;;;;;;24.00;43.30;;;;;;1522192;77;791;-69
2021/10/09 05:17:21;;;;;;;;;;;23.90;43.30;;;;;;1530718;77;765;-69
2021/10/09 05:19:23;;;;;;;;;;;24.00;43.30;;;;;;1522363;77;1218;-70
2021/10/09 05:21:25;;;;;;;;;;;23.90;43.30;;;;;;1532686;77;748;-71
2021/10/09 05:23:30;;;;;;;;;;;23.90;43.20;;;;;;1519133;77;754;-69
2021/10/09 05:25:32;;;;;;;;;;;23.90;43.20;;;;;;1523737;77;1672;-68
2021/10/09 05:27:35;;;;;;;;;;;24.00;43.20;;;;;;1526567;77;1674;-70
2021/10/09 05:29:37;;;;;;;;;;;23.90;43.20;;;;;;1518810;77;1173;-69
2021/10/09 05:31:39;;;;;;;;;;;23.90;43.10;;;;;;1530701;77;1955;-69
2021/10/09 05:33:43;;;;;;;;;;;24.00;43.10;;;;;;1518466;77;815;-67
2021/10/09 05:35:45;;;;;;;;;;;23.90;43.30;;;;;;1518303;78;782;-70
2021/10/09 05:37:46;;;;;;;;;;;23.90;43.40;;;;;;1520284;77;729;-69
2021/10/09 05:39:48;;;;;;;;;;;23.90;43.40;;;;;;1524008;77;1209;-69
2021/10/09 05:41:50;;;;;;;;;;;24.00;43.30;;;;;;1522907;77;738;-74
2021/10/09 05:43:52;;;;;;;;;;;24.00;43.20;;;;;;1515743;77;725;-73
2021/10/09 05:45:54;;;;;;;;;;;24.00;43.20;;;;;;1519392;77;787;-74
2021/10/09 05:47:56;;;;;;;;;;;23.90;43.30;;;;;;1522337;77;675;-74
2021/10/09 05:50:00;;;;;;;;;;;23.80;43.40;;;;;;1522392;77;1155;-74
2021/10/09 05:52:19;;;;;;;;;;;23.80;43.60;;;;;;1527471;77;1922;-74
2021/10/09 05:54:19;;;;;;;;;;;23.70;43.70;;;;;;1519469;77;1614;-73
2021/10/09 05:58:50;;;;;;;;;;;23.60;43.90;;;;;;1512951;77;731;-74
2021/10/09 06:59:25;;;;;;;;;;;23.80;43.70;;;;;;1526581;77;1909;-71
2021/10/09 07:00:05;;;;;;;;;;;23.80;43.30;;;;;;1527145;76;1191;-72
2021/10/09 07:02:07;;;;;;;;;;;23.80;43.20;;;;;;1520311;77;727;-72
2021/10/09 07:04:09;;;;;;;;;;;23.80;43.20;;;;;;1523831;77;781;-72
2021/10/09 07:06:15;;;;;;;;;;;23.80;43.20;;;;;;1518758;77;806;-69
2021/10/09 07:08:15;;;;;;;;;;;23.80;43.10;;;;;;1527711;77;1884;-71
2021/10/09 07:10:17;;;;;;;;;;;23.90;43.10;;;;;;1544905;73;2093;-71
2021/10/09 07:12:18;;;;;;;;;;;23.80;43.00;;;;;;1574571;75;1941;-70
2021/10/09 07:14:21;;;;;;;;;;;23.80;42.90;;;;;;1571420;75;679;-70
2021/10/09 07:16:22;;;;;;;;;;;23.80;42.80;;;;;;1571510;74;818;-71
2021/10/09 07:18:24;;;;;;;;;;;23.90;42.70;;;;;;1571020;75;773;-71
2021/10/09 07:20:26;;;;;;;;;;;23.90;42.60;;;;;;1589016;74;1205;-71
2021/10/09 07:22:28;;;;;;;;;;;24.00;42.60;;;;;;1599211;74;710;-71
2021/10/09 07:24:30;;;;;;;;;;;24.00;42.50;;;;;;1590539;74;778;-69
2021/10/09 07:26:32;;;;;;;;;;;24.00;42.40;;;;;;1599430;74;711;-70
2021/10/09 07:28:34;;;;;;;;;;;23.90;42.40;;;;;;1599294;73;776;-71
2021/10/09 07:30:36;;;;;;;;;;;24.00;42.40;;;;;;1599290;74;1180;-71
2021/10/09 07:32:38;;;;;;;;;;;24.00;42.30;;;;;;1599506;74;1927;-72
2021/10/09 07:34:39;;;;;;;;;;;24.00;42.20;;;;;;1598678;74;712;-71
2021/10/09 07:36:41;;;;;;;;;;;24.10;42.30;;;;;;1599077;74;559;-71
2021/10/09 07:38:44;;;;;;;;;;;24.00;42.10;;;;;;1599366;73;708;-72
2021/10/09 07:40:46;;;;;;;;;;;24.00;42.30;;;;;;1598997;74;1131;-71
2021/10/09 07:42:47;;;;;;;;;;;23.90;42.30;;;;;;1599336;74;735;-71
2021/10/09 07:44:50;;;;;;;;;;;23.90;42.30;;;;;;1598721;74;726;-70
2021/10/09 07:46:52;;;;;;;;;;;23.80;42.10;;;;;;1599164;74;800;-74
2021/10/09 07:48:54;;;;;;;;;;;23.70;42.10;;;;;;1599393;74;728;-76
2021/10/09 07:50:58;;;;;;;;;;;23.70;42.10;;;;;;1599439;74;1937;-73
2021/10/09 07:53:02;;;;;;;;;;;23.70;42.10;;;;;;1598960;74;763;-74
2021/10/09 07:55:04;;;;;;;;;;;23.60;42.00;;;;;;1598210;73;1493;-73
2021/10/09 07:57:06;;;;;;;;;;;23.50;42.00;;;;;;1599257;74;702;-71
2021/10/09 07:59:08;;;;;;;;;;;23.50;41.90;;;;;;1599145;74;695;-69
2021/10/09 08:01:10;;;;;;;;;;;23.50;41.90;;;;;;1599135;73;1124;-69
2021/10/09 08:03:12;;;;;;;;;;;23.50;40.50;;;;;;1599031;74;754;-71
2021/10/09 08:05:14;;;;;;;;;;;23.30;39.90;;;;;;1599363;74;733;-66
2021/10/09 08:07:15;;;;;;;;;;;23.40;39.50;;;;;;1599390;74;720;-66
2021/10/09 08:09:17;;;;;;;;;;;23.30;39.50;;;;;;1599090;73;1143;-68
2021/10/09 08:11:19;;;;;;;;;;;23.20;38.90;;;;;;1599115;73;1934;-67
2021/10/09 08:13:21;;;;;;;;;;;23.20;38.80;;;;;;1598893;74;800;-67
2021/10/09 08:15:23;;;;;;;;;;;23.10;38.20;;;;;;1599201;73;767;-67
2021/10/09 08:17:25;;;;;;;;;;;23.10;37.60;;;;;;1599032;74;672;-67
2021/10/09 08:19:27;;;;;;;;;;;23.00;38.40;;;;;;1599196;74;1164;-69
2021/10/09 08:21:31;;;;;;;;;;;23.00;39.00;;;;;;1596489;74;682;-67
2021/10/09 08:23:47;;;;;;;;;;;22.90;39.20;;;;;;1598446;74;1620;-67
2021/10/09 08:38:58;;;;;;;;;;;22.60;39.60;;;;;;1556782;74;909;-67
2021/10/09 08:41:00;;;;;;;;;;;22.80;39.80;;;;;;1599423;73;1117;-68
2021/10/09 08:43:02;;;;;;;;;;;22.90;40.00;;;;;;1598755;73;726;-67
2021/10/09 08:45:04;;;;;;;;;;;22.90;40.20;;;;;;1599772;73;689;-68
2021/10/09 08:47:09;;;;;;;;;;;22.90;40.30;;;;;;1599511;73;660;-68
2021/10/09 08:49:10;;;;;;;;;;;22.80;40.20;;;;;;1598497;73;1605;-68
2021/10/09 08:51:12;;;;;;;;;;;22.80;40.30;;;;;;1599093;73;745;-69
2021/10/09 08:53:14;;;;;;;;;;;22.80;40.40;;;;;;1599423;73;653;-69
2021/10/09 08:55:19;;;;;;;;;;;22.80;40.50;;;;;;1598986;73;687;-68
2021/10/09 08:57:23;;;;;;;;;;;22.80;40.50;;;;;;1599244;74;777;-68
2021/10/09 08:59:30;;;;;;;;;;;22.90;40.70;;;;;;1595975;74;1156;-70
2021/10/09 09:01:40;;;;;;;;;;;22.90;40.90;;;;;;1599156;73;992;-70
2021/10/09 09:03:57;;;;;;;;;;;23.00;41.30;;;;;;1596848;73;1197;-69
2021/10/09 09:08:16;;;;;;;;;;;23.10;41.50;;;;;;1599034;73;820;-69
2021/10/09 09:31:29;;;;;;;;;;;23.10;42.70;;;;;;1599093;74;1634;-71
2021/10/09 09:35:46;;;;;;;;;;;23.20;42.60;;;;;;1594478;74;866;-71
2021/10/09 09:39:43;;;;;;;;;;;23.30;43.00;;;;;;1598884;73;1150;-69
2021/10/09 09:41:46;;;;;;;;;;;23.30;42.60;;;;;;1599352;74;825;-72
2021/10/09 09:43:48;;;;;;;;;;;23.30;42.60;;;;;;1598670;74;1498;-71
2021/10/09 09:45:50;;;;;;;;;;;23.30;42.80;;;;;;1599168;73;733;-72
2021/10/09 09:47:55;;;;;;;;;;;23.40;42.70;;;;;;1599397;74;863;-71
2021/10/09 09:49:57;;;;;;;;;;;23.40;42.70;;;;;;1598762;74;1540;-69
2021/10/09 09:51:59;;;;;;;;;;;23.40;42.90;;;;;;1599309;74;1897;-65
2021/10/09 09:54:01;;;;;;;;;;;23.50;42.80;;;;;;1599639;74;792;-69
2021/10/09 09:56:02;;;;;;;;;;;23.50;42.70;;;;;;1595378;74;717;-69
2021/10/09 09:58:04;;;;;;;;;;;23.60;42.80;;;;;;1599351;74;784;-70
2021/10/09 10:00:07;;;;;;;;;;;23.50;42.80;;;;;;1599391;74;1144;-70
2021/10/09 10:02:09;;;;;;;;;;;23.50;42.80;;;;;;1598018;73;781;-68
2021/10/09 10:04:10;;;;;;;;;;;23.50;43.00;;;;;;1599400;73;740;-66
2021/10/09 10:06:12;;;;;;;;;;;23.50;43.20;;;;;;1568570;75;736;-69
2021/10/09 10:08:14;;;;;;;;;;;23.50;43.10;;;;;;1599225;73;713;-70
2021/10/09 10:10:16;;;;;;;;;;;23.60;43.40;;;;;;1599578;74;1137;-66
2021/10/09 10:12:18;;;;;;;;;;;23.40;43.10;;;;;;1599145;74;1930;-68
2021/10/09 10:14:20;;;;;;;;;;;23.50;43.10;;;;;;1599237;73;661;-67
2021/10/09 10:16:23;;;;;;;;;;;23.40;43.10;;;;;;1599240;73;819;-68
2021/10/09 10:18:44;;;;;;;;;;;23.40;43.10;;;;;;1599105;74;762;-69
2021/10/09 10:20:51;;;;;;;;;;;23.30;43.00;;;;;;1598899;73;1250;-73
2021/10/09 10:22:55;;;;;;;;;;;23.30;42.90;;;;;;1594273;73;745;-77
2021/10/09 10:24:56;;;;;;;;;;;23.30;42.00;;;;;;1598771;73;667;-73
2021/10/09 10:27:00;;;;;;;;;;;23.30;41.10;;;;;;1599469;73;728;-72
2021/10/09 10:29:03;;;;;;;;;;;23.20;40.80;;;;;;1591821;74;916;-72
2021/10/09 10:31:05;;;;;;;;;;;23.20;41.00;;;;;;1599134;74;1135;-71
2021/10/09 10:33:10;;;;;;;;;;;23.20;41.30;;;;;;1599445;74;1936;-72
2021/10/09 10:35:31;;;;;;;;;;;23.20;41.40;;;;;;1599228;74;685;-72
2021/10/09 10:37:34;;;;;;;;;;;23.20;41.50;;;;;;1599477;74;721;-72
2021/10/09 10:39:40;;;;;;;;;;;23.20;41.70;;;;;;1599611;73;1152;-72
2021/10/09 10:41:46;;;;;;;;;;;23.20;41.80;;;;;;1595408;74;771;-71
2021/10/09 10:43:50;;;;;;;;;;;23.20;41.80;;;;;;1598844;74;1072;-71
2021/10/09 10:45:51;;;;;;;;;;;23.20;41.90;;;;;;1599124;74;1159;-70
2021/10/09 10:50:07;;;;;;;;;;;23.10;40.30;;;;;;1595908;74;1198;-68
2021/10/09 10:56:28;;;;;;;;;;;22.80;38.50;;;;;;1597065;73;870;-67
2021/10/09 10:58:30;;;;;;;;;;;22.60;37.10;;;;;;1599078;74;689;-71
2021/10/09 11:00:32;;;;;;;;;;;22.50;38.90;;;;;;1599230;73;1255;-71
2021/10/09 11:02:38;;;;;;;;;;;22.50;39.20;;;;;;1599454;73;725;-70
2021/10/09 11:04:42;;;;;;;;;;;22.50;39.30;;;;;;1599088;73;700;-72
2021/10/09 11:06:43;;;;;;;;;;;22.50;39.40;;;;;;1595111;74;1107;-70
2021/10/09 11:08:45;;;;;;;;;;;22.50;39.30;;;;;;1568526;74;1197;-71
2021/10/09 11:10:47;;;;;;;;;;;22.50;39.30;;;;;;1597829;74;1159;-71
2021/10/09 11:12:49;;;;;;;;;;;22.50;39.40;;;;;;1599365;74;1929;-71
2021/10/09 11:14:52;;;;;;;;;;;22.50;39.30;;;;;;1599414;74;759;-72
2021/10/09 11:17:01;;;;;;;;;;;22.50;39.30;;;;;;1599557;73;716;-70
2021/10/09 11:19:02;;;;;;;;;;;22.50;39.30;;;;;;1599503;74;729;-70
2021/10/09 11:21:05;;;;;;;;;;;22.50;39.20;;;;;;1599196;74;1129;-67
2021/10/09 11:23:09;;;;;;;;;;;22.50;39.10;;;;;;1599426;73;727;-69
2021/10/09 11:25:12;;;;;;;;;;;22.40;37.30;;;;;;1598002;74;1350;-66
2021/10/09 11:27:14;;;;;;;;;;;22.30;36.70;;;;;;1597287;73;958;-66
2021/10/09 11:29:16;;;;;;;;;;;22.00;36.60;;;;;;1598991;73;1168;-68
2021/10/09 11:31:22;;;;;;;;;;;21.80;36.80;;;;;;1598524;73;711;-68
2021/10/09 11:33:25;;;;;;;;;;;21.50;37.60;;;;;;1597998;74;1941;-68
2021/10/09 11:35:39;;;;;;;;;;;21.20;37.50;;;;;;1598665;74;728;-67
2021/10/09 11:37:45;;;;;;;;;;;20.90;37.50;;;;;;1588219;73;719;-67
2021/10/09 11:39:48;;;;;;;;;;;20.80;38.50;;;;;;1597977;73;1140;-68
2021/10/09 11:42:03;;;;;;;;;;;20.80;38.90;;;;;;1599501;73;710;-71
2021/10/09 11:44:18;;;;;;;;;;;20.60;38.70;;;;;;1599221;74;621;-73
2021/10/09 11:55:35;;;;;;;;;;;19.50;40.20;;;;;;1591991;73;1636;-74
2021/10/09 11:57:37;;;;;;;;;;;19.40;40.70;;;;;;1599237;73;729;-75
2021/10/09 11:59:40;;;;;;;;;;;19.30;41.50;;;;;;1599727;73;1124;-73
2021/10/09 12:01:43;;;;;;;;;;;19.20;42.50;;;;;;1597687;73;717;-72
2021/10/09 12:03:45;;;;;;;;;;;19.20;42.60;;;;;;1598399;73;990;-73
2021/10/09 12:05:54;;;;;;;;;;;19.10;41.30;;;;;;1599414;73;752;-73
2021/10/09 12:08:27;;;;;;;;;;;19.10;41.30;;;;;;1595498;74;661;-73
2021/10/09 12:10:29;;;;;;;;;;;19.10;43.40;;;;;;1590118;73;1125;-68
2021/10/09 12:12:35;;;;;;;;;;;19.10;42.40;;;;;;1599141;73;1941;-68
2021/10/09 12:14:37;;;;;;;;;;;19.10;42.50;;;;;;1590653;73;702;-68
2021/10/09 12:16:39;;;;;;;;;;;19.20;42.70;;;;;;1598100;73;804;-70
2021/10/09 12:18:54;;;;;;;;;;;19.20;40.80;;;;;;1599345;74;721;-71
2021/10/09 12:20:54;;;;;;;;;;;19.00;40.30;;;;;;1598502;73;1188;-70
2021/10/09 12:22:57;;;;;;;;;;;18.90;41.10;;;;;;1599224;74;721;-71
2021/10/09 12:24:59;;;;;;;;;;;18.90;41.80;;;;;;1599002;74;637;-70
2021/10/09 12:27:15;;;;;;;;;;;19.20;41.80;;;;;;1597909;73;646;-70
2021/10/09 12:29:13;;;;;;;;;;;19.40;41.90;;;;;;1596885;74;1144;-70
2021/10/09 12:31:29;;;;;;;;;;;19.50;41.90;;;;;;1599048;73;732;-71
2021/10/09 12:33:38;;;;;;;;;;;19.70;41.60;;;;;;1595793;73;1944;-70
2021/10/09 12:35:40;;;;;;;;;;;19.80;41.50;;;;;;1598965;74;711;-71
2021/10/09 12:37:44;;;;;;;;;;;19.90;41.20;;;;;;1599355;73;665;-71
2021/10/09 12:39:46;;;;;;;;;;;20.10;40.80;;;;;;1586850;74;1086;-71
2021/10/09 12:41:49;;;;;;;;;;;20.20;40.60;;;;;;1599448;73;804;-71
2021/10/09 12:43:54;;;;;;;;;;;20.20;40.60;;;;;;1596730;73;719;-71
2021/10/09 12:45:56;;;;;;;;;;;20.30;40.50;;;;;;1599115;74;697;-70
2021/10/09 12:47:58;;;;;;;;;;;20.20;40.40;;;;;;1599120;73;740;-69
2021/10/09 12:50:00;;;;;;;;;;;20.30;40.40;;;;;;1599104;74;1251;-69
2021/10/09 12:52:02;;;;;;;;;;;20.30;39.00;;;;;;1598958;74;692;-70
2021/10/09 12:54:06;;;;;;;;;;;20.20;39.60;;;;;;1597736;74;1935;-71
2021/10/09 12:56:08;;;;;;;;;;;20.00;38.40;;;;;;1598829;74;1156;-70
2021/10/09 12:58:10;;;;;;;;;;;19.90;39.50;;;;;;1598868;74;807;-67
2021/10/09 13:00:12;;;;;;;;;;;19.70;39.70;;;;;;1599421;74;1105;-69
2021/10/09 13:02:15;;;;;;;;;;;19.70;39.60;;;;;;1597500;74;730;-67
2021/10/09 13:04:17;;;;;;;;;;;19.50;39.20;;;;;;1596343;74;673;-66
2021/10/09 13:06:18;;;;;;;;;;;19.50;40.10;;;;;;1597100;74;722;-66
2021/10/09 13:08:20;;;;;;;;;;;19.40;40.30;;;;;;1599030;73;714;-66
2021/10/09 13:10:23;;;;;;;;;;;19.50;41.00;;;;;;1588708;73;3092;-64
2021/10/09 13:12:24;;;;;;;;;;;19.50;40.70;;;;;;1575203;74;770;-64
2021/10/09 13:14:26;;;;;;;;;;;19.50;40.60;;;;;;1571904;74;1919;-65
2021/10/09 13:16:28;;;;;;;;;;;19.50;40.60;;;;;;1575781;74;701;-66
2021/10/09 13:18:30;;;;;;;;;;;19.50;40.40;;;;;;1568974;74;738;-71
2021/10/09 13:20:37;;;;;;;;;;;19.40;40.50;;;;;;1566965;74;1220;-64
2021/10/09 13:22:38;;;;;;;;;;;19.30;39.70;;;;;;1556584;75;1673;-66
2021/10/09 13:24:40;;;;;;;;;;;19.40;41.00;;;;;;1562024;74;778;-67
2021/10/09 13:26:42;;;;;;;;;;;19.40;40.00;;;;;;1558004;74;744;-67
2021/10/09 13:28:44;;;;;;;;;;;19.20;39.60;;;;;;1561819;76;808;-67
2021/10/09 13:30:46;;;;;;;;;;;19.20;40.60;;;;;;1552191;74;1175;-66
2021/10/09 13:32:48;;;;;;;;;;;19.20;40.80;;;;;;1552286;76;1932;-72
2021/10/09 13:34:49;;;;;;;;;;;19.10;40.60;;;;;;1558089;74;741;-66
2021/10/09 13:36:51;;;;;;;;;;;19.10;41.30;;;;;;1556635;76;772;-70
2021/10/09 13:38:53;;;;;;;;;;;19.20;41.20;;;;;;1555890;76;825;-65
2021/10/09 13:40:55;;;;;;;;;;;19.20;41.30;;;;;;1551370;76;1197;-68
2021/10/09 13:42:57;;;;;;;;;;;19.10;40.50;;;;;;1558719;76;668;-67
2021/10/09 13:44:59;;;;;;;;;;;19.00;39.90;;;;;;1552827;76;714;-67
2021/10/09 13:47:01;;;;;;;;;;;18.90;40.00;;;;;;1563085;76;729;-67
2021/10/09 13:49:02;;;;;;;;;;;19.00;40.90;;;;;;1552812;76;683;-66
2021/10/09 13:51:06;;;;;;;;;;;18.90;39.20;;;;;;1559705;76;1151;-68
2021/10/09 13:53:10;;;;;;;;;;;18.80;40.00;;;;;;1560584;76;1930;-66
2021/10/09 13:55:12;;;;;;;;;;;18.80;41.00;;;;;;1559134;76;788;-66
2021/10/09 13:57:13;;;;;;;;;;;18.90;41.10;;;;;;1560461;74;796;-67
2021/10/09 13:59:15;;;;;;;;;;;18.80;40.10;;;;;;1548448;76;771;-67
2021/10/09 14:01:17;;;;;;;;;;;18.80;41.00;;;;;;1550321;74;1174;-65
2021/10/09 14:03:19;;;;;;;;;;;18.80;40.30;;;;;;1558656;76;795;-68
2021/10/09 14:05:21;;;;;;;;;;;18.80;40.40;;;;;;1562143;74;716;-71
2021/10/09 14:07:23;;;;;;;;;;;18.80;40.00;;;;;;1558033;76;785;-65
2021/10/09 14:09:25;;;;;;;;;;;18.70;40.40;;;;;;1545663;76;750;-70
2021/10/09 14:11:26;;;;;;;;;;;18.70;40.50;;;;;;1557211;76;1074;-69
2021/10/09 14:13:28;;;;;;;;;;;18.70;40.40;;;;;;1547724;76;1952;-71
2021/10/09 14:15:30;;;;;;;;;;;18.70;40.50;;;;;;1554184;76;783;-68
2021/10/09 14:17:32;;;;;;;;;;;19.00;40.60;;;;;;1552377;76;761;-70
2021/10/09 14:19:34;;;;;;;;;;;19.20;40.40;;;;;;1555142;74;1161;-73